Sainte-Ode, Belgium
Current Conditions -  °F | °C
As of 9:20 AM on Monday 24 Nov 2014 (Local Time) from EBLG Reporting Station
Haze Haze  
Wind Chill: 42°   Ceiling: Unl
Heat Index: 45°   Visibility: 2.5mi
Dew Point: 43°   Wind: 5mph
Humidity: 93%   Direction: 350°N
Pressure: 30.24"   Gusts: NA
Location:  50.08°N, 5.53°E
Report Text: EBLG 240820Z 35004KT 4000 BR FEW004 SCT042 07/06 Q1024 TEMPO 3500 BR
Loading
Personal Weather Stations






























Interactive Weather Map New forecast layout! Learn more

10-Day Weather Forecast

Advertisements
Track Severe Weather on mobile